Time;durP1;ratioP1;P1;durP2;ratioP2;P2;SDS_P1;SDS_P2;PMS_P1;PMS_P2;Temp;Humidity;BMP_temperature;BMP_pressure;BME280_temperature;BME280_humidity;BME280_pressure;Samples;Min_cycle;Max_cycle;Signal;HPM_P1;HPM_P2
2022/12/01 00:00:34;;;;;;;104.53;38.85;;;6.60;99.90;;;;;;5045386;28;20054;-72
2022/12/01 00:03:00;;;;;;;103.47;38.55;;;6.70;99.90;;;;;;5066265;28;20049;-72
2022/12/01 00:05:25;;;;;;;101.07;42.00;;;6.70;99.90;;;;;;5065855;28;20057;-73
2022/12/01 00:07:51;;;;;;;106.20;40.80;;;6.60;99.90;;;;;;5066266;28;20080;-72
2022/12/01 00:10:27;;;;;;;108.15;39.00;;;6.60;99.90;;;;;;5039158;28;20056;-72
2022/12/01 00:12:53;;;;;;;100.40;41.05;;;6.60;99.90;;;;;;5065249;28;20550;-72
2022/12/01 00:15:20;;;;;;;100.20;37.70;;;6.60;99.90;;;;;;5047335;28;20108;-72
2022/12/01 00:17:47;;;;;;;106.53;39.75;;;6.60;99.90;;;;;;5047921;28;20508;-72
2022/12/01 00:20:14;;;;;;;107.28;41.03;;;6.60;99.90;;;;;;5047518;28;20136;-72
2022/12/01 00:22:47;;;;;;;101.50;41.72;;;6.60;99.90;;;;;;5065144;28;20040;-72
2022/12/01 00:25:15;;;;;;;109.53;41.53;;;6.70;99.90;;;;;;5047569;28;20053;-72
2022/12/01 00:27:41;;;;;;;100.15;40.00;;;6.60;99.90;;;;;;5047795;28;20048;-72
2022/12/01 00:30:10;;;;;;;101.05;43.42;;;6.70;99.90;;;;;;5047212;28;20079;-72
2022/12/01 00:32:36;;;;;;;103.78;41.50;;;6.60;99.90;;;;;;5039568;28;20097;-72
2022/12/01 00:35:04;;;;;;;103.68;41.42;;;6.60;99.90;;;;;;5045728;28;20053;-72
2022/12/01 00:37:30;;;;;;;97.55;40.08;;;6.60;99.90;;;;;;5071224;28;20040;-72
2022/12/01 00:39:57;;;;;;;106.07;41.33;;;6.70;99.90;;;;;;5065715;28;20236;-72
2022/12/01 00:42:22;;;;;;;98.70;41.97;;;6.70;99.90;;;;;;5066891;28;20049;-72
2022/12/01 00:44:48;;;;;;;104.13;41.10;;;6.70;99.90;;;;;;5048093;28;20086;-72
2022/12/01 00:47:14;;;;;;;92.80;39.92;;;6.70;99.90;;;;;;5048811;28;20049;-72
2022/12/01 00:49:40;;;;;;;88.97;41.30;;;6.70;99.90;;;;;;5047819;28;20068;-72
2022/12/01 00:52:05;;;;;;;91.10;39.70;;;6.70;99.90;;;;;;5047554;28;20075;-72
2022/12/01 00:54:31;;;;;;;90.82;39.47;;;6.60;99.90;;;;;;5065172;28;20041;-72
2022/12/01 00:57:00;;;;;;;89.10;38.65;;;6.70;99.90;;;;;;5048496;28;20108;-72
2022/12/01 00:59:26;;;;;;;87.50;39.83;;;6.60;99.90;;;;;;5048961;28;20060;-72
2022/12/01 01:01:51;;;;;;;94.32;40.83;;;6.60;99.90;;;;;;5052344;28;20036;-72
2022/12/01 01:04:18;;;;;;;92.20;39.58;;;6.70;99.90;;;;;;5065122;28;20084;-72
2022/12/01 01:06:45;;;;;;;93.25;41.20;;;6.50;99.90;;;;;;5034756;28;20044;-72
2022/12/01 01:09:12;;;;;;;93.03;40.47;;;6.70;99.90;;;;;;5048859;28;20044;-72
2022/12/01 01:11:38;;;;;;;92.05;42.20;;;6.60;99.90;;;;;;5030659;28;20094;-72
2022/12/01 01:14:05;;;;;;;94.47;38.97;;;6.60;99.90;;;;;;5048006;28;20041;-72
2022/12/01 01:16:31;;;;;;;89.90;40.53;;;6.60;99.90;;;;;;5083879;28;20041;-72
2022/12/01 01:18:57;;;;;;;91.70;39.55;;;6.60;99.90;;;;;;5052217;28;20069;-72
2022/12/01 01:21:23;;;;;;;90.25;40.20;;;6.60;99.90;;;;;;5054182;28;20049;-72
2022/12/01 01:23:50;;;;;;;97.32;42.10;;;6.60;99.90;;;;;;5052815;28;20040;-72
2022/12/01 01:26:20;;;;;;;90.25;40.35;;;6.60;99.90;;;;;;5055399;28;20052;-72
2022/12/01 01:28:47;;;;;;;88.88;42.00;;;6.60;99.90;;;;;;5045588;28;20336;-72
2022/12/01 01:31:16;;;;;;;89.68;40.20;;;6.60;99.90;;;;;;5079128;28;20405;-72
2022/12/01 01:33:42;;;;;;;90.90;41.58;;;6.60;99.90;;;;;;5053087;28;20045;-72
2022/12/01 01:36:08;;;;;;;85.15;36.60;;;6.60;99.90;;;;;;5046450;28;20049;-72
2022/12/01 01:38:35;;;;;;;91.90;41.67;;;6.60;99.90;;;;;;5047246;28;20076;-72
2022/12/01 01:41:01;;;;;;;86.20;39.83;;;6.50;99.90;;;;;;5046251;28;20045;-72
2022/12/01 01:43:49;;;;;;;94.90;41.63;;;6.50;99.90;;;;;;5044998;28;20140;-72
2022/12/01 01:46:24;;;;;;;93.93;43.28;;;6.50;99.90;;;;;;5060305;28;20051;-72
2022/12/01 01:49:06;;;;;;;90.88;42.60;;;6.60;99.90;;;;;;5049618;28;20061;-72
2022/12/01 01:51:35;;;;;;;93.72;41.70;;;6.60;99.90;;;;;;5070224;28;20488;-72
2022/12/01 01:54:08;;;;;;;84.03;41.70;;;6.50;99.90;;;;;;5082933;28;20442;-72
2022/12/01 01:56:35;;;;;;;83.45;39.35;;;6.50;99.90;;;;;;5060601;28;20053;-72
2022/12/01 01:59:02;;;;;;;88.18;40.70;;;6.50;99.90;;;;;;5045824;28;20049;-72
2022/12/01 02:01:28;;;;;;;87.45;40.25;;;6.60;99.90;;;;;;5049895;28;20048;-72
2022/12/01 02:03:54;;;;;;;84.05;39.42;;;6.60;99.90;;;;;;5055022;28;20071;-72
2022/12/01 02:06:22;;;;;;;87.43;39.90;;;6.60;99.90;;;;;;5039569;28;20052;-72
2022/12/01 02:08:48;;;;;;;88.25;40.55;;;6.50;99.90;;;;;;5048548;28;20049;-72
2022/12/01 02:11:47;;;;;;;84.55;40.72;;;6.50;99.90;;;;;;5048167;28;20049;-72
2022/12/01 02:14:19;;;;;;;88.80;39.88;;;6.50;99.90;;;;;;5035925;28;20084;-72
2022/12/01 02:16:58;;;;;;;86.60;40.28;;;6.50;99.90;;;;;;5052873;28;20033;-72
2022/12/01 02:20:01;;;;;;;83.75;40.83;;;6.50;99.90;;;;;;5059479;28;20044;-72
2022/12/01 02:23:13;;;;;;;90.22;40.25;;;6.50;99.90;;;;;;5059270;28;20053;-72
2022/12/01 02:26:10;;;;;;;88.53;41.63;;;6.50;99.90;;;;;;4992621;28;20085;-72
2022/12/01 02:29:17;;;;;;;88.93;42.42;;;6.50;99.90;;;;;;5001691;28;20066;-72
2022/12/01 02:32:07;;;;;;;88.80;40.63;;;6.50;99.90;;;;;;4961823;28;20137;-72
2022/12/01 02:34:57;;;;;;;81.60;38.80;;;6.50;99.90;;;;;;5007027;28;20046;-72
2022/12/01 02:37:28;;;;;;;88.13;41.47;;;6.50;99.90;;;;;;4989273;28;20053;-72
2022/12/01 02:40:02;;;;;;;92.57;42.00;;;6.50;99.90;;;;;;4992807;28;20038;-72
2022/12/01 02:42:50;;;;;;;83.75;40.53;;;6.50;99.90;;;;;;4998296;28;20054;-72
2022/12/01 02:45:39;;;;;;;85.88;42.72;;;6.50;99.90;;;;;;4973960;28;20341;-72
2022/12/01 02:48:13;;;;;;;87.43;40.80;;;6.50;99.90;;;;;;4996591;28;20053;-72
2022/12/01 02:50:41;;;;;;;89.18;42.10;;;6.50;99.90;;;;;;5008603;28;20050;-72
2022/12/01 02:53:10;;;;;;;84.57;41.10;;;6.50;99.90;;;;;;5018655;28;20510;-72
2022/12/01 02:55:36;;;;;;;89.22;43.50;;;6.50;99.90;;;;;;5000402;28;20066;-72
2022/12/01 02:58:11;;;;;;;85.53;40.95;;;6.50;99.90;;;;;;4994645;28;20050;-72
2022/12/01 03:00:37;;;;;;;87.93;42.13;;;6.50;99.90;;;;;;5022901;28;20060;-72
2022/12/01 03:03:29;;;;;;;92.00;42.08;;;6.50;99.90;;;;;;5048588;28;20040;-72
2022/12/01 03:06:07;;;;;;;83.13;39.63;;;6.50;99.90;;;;;;5048423;28;20080;-72
2022/12/01 03:09:00;;;;;;;92.07;41.55;;;6.50;99.90;;;;;;5048975;28;20100;-72
2022/12/01 03:11:37;;;;;;;92.03;40.92;;;6.50;99.90;;;;;;5042852;28;20048;-72
2022/12/01 03:14:18;;;;;;;83.65;40.83;;;6.50;99.90;;;;;;5083803;28;20064;-72
2022/12/01 03:16:52;;;;;;;88.35;43.00;;;6.50;99.90;;;;;;5067486;28;20049;-72
2022/12/01 03:19:33;;;;;;;86.15;40.95;;;6.40;99.90;;;;;;5049884;28;20102;-72
2022/12/01 03:22:27;;;;;;;83.63;39.13;;;6.50;99.90;;;;;;5047381;28;20045;-72
2022/12/01 03:24:56;;;;;;;95.50;43.60;;;6.50;99.90;;;;;;5071667;28;20045;-72
2022/12/01 03:27:27;;;;;;;93.75;44.17;;;6.50;99.90;;;;;;5047975;28;20072;-72
2022/12/01 03:29:56;;;;;;;95.50;43.17;;;6.50;99.90;;;;;;5065440;28;20044;-72
2022/12/01 03:32:31;;;;;;;95.50;45.17;;;6.50;99.90;;;;;;5069030;28;20037;-72
2022/12/01 03:35:03;;;;;;;96.07;41.30;;;6.40;99.90;;;;;;5067971;28;20128;-72
2022/12/01 03:37:39;;;;;;;93.90;44.45;;;6.40;99.90;;;;;;5049689;28;20535;-72
2022/12/01 03:40:09;;;;;;;89.93;43.05;;;6.40;99.90;;;;;;5068595;28;20063;-72
2022/12/01 03:42:39;;;;;;;94.25;40.95;;;6.40;99.90;;;;;;5036383;28;20045;-72
2022/12/01 03:45:10;;;;;;;94.18;43.22;;;6.50;99.90;;;;;;5049549;28;20493;-72
2022/12/01 03:47:38;;;;;;;86.63;40.47;;;6.50;99.90;;;;;;5050066;28;20091;-72
2022/12/01 03:50:07;;;;;;;94.80;43.50;;;6.50;99.90;;;;;;5051627;28;20060;-72
2022/12/01 03:52:57;;;;;;;93.03;42.95;;;6.40;99.90;;;;;;5052319;28;20052;-72
2022/12/01 03:55:30;;;;;;;90.18;43.33;;;6.40;99.90;;;;;;5051723;28;20040;-72
2022/12/01 03:58:26;;;;;;;86.07;41.83;;;6.40;99.90;;;;;;5050156;28;20091;-72
2022/12/01 04:00:56;;;;;;;89.78;43.70;;;6.30;99.90;;;;;;5050232;28;20131;-72
2022/12/01 04:03:25;;;;;;;95.53;43.25;;;6.30;99.90;;;;;;5052757;28;20099;-72
2022/12/01 04:05:51;;;;;;;88.88;42.38;;;6.30;99.90;;;;;;5039622;28;20068;-72
2022/12/01 04:08:16;;;;;;;87.15;42.47;;;6.40;99.90;;;;;;5070638;28;20048;-72
2022/12/01 04:10:42;;;;;;;87.57;42.20;;;6.40;99.90;;;;;;5050301;28;20076;-72
2022/12/01 04:13:15;;;;;;;94.85;43.97;;;6.30;99.90;;;;;;5052943;28;20084;-72
2022/12/01 04:15:41;;;;;;;91.70;44.50;;;6.30;99.90;;;;;;5063996;28;20037;-72
2022/12/01 04:18:07;;;;;;;88.95;41.85;;;6.30;99.90;;;;;;5071200;28;20072;-72
2022/12/01 04:20:33;;;;;;;91.78;42.28;;;6.40;99.90;;;;;;5050321;28;20059;-72
2022/12/01 04:22:59;;;;;;;93.55;42.85;;;6.30;99.90;;;;;;5066295;28;20037;-72
2022/12/01 04:25:24;;;;;;;95.25;44.97;;;6.40;99.90;;;;;;5061238;28;20052;-72
2022/12/01 04:27:50;;;;;;;98.80;44.33;;;6.40;99.90;;;;;;5059620;28;20050;-72
2022/12/01 04:30:16;;;;;;;97.85;44.08;;;6.30;99.90;;;;;;5048656;28;20052;-72
2022/12/01 04:32:42;;;;;;;91.57;42.72;;;6.30;99.90;;;;;;5054263;28;20519;-72
2022/12/01 04:35:11;;;;;;;92.47;42.67;;;6.40;99.90;;;;;;5078732;28;20045;-72
2022/12/01 04:37:38;;;;;;;92.43;45.97;;;6.30;99.90;;;;;;5046820;28;20293;-72
2022/12/01 04:40:04;;;;;;;92.43;41.78;;;6.40;99.90;;;;;;5082989;28;20048;-72
2022/12/01 04:42:30;;;;;;;93.95;42.78;;;6.30;99.90;;;;;;5054870;28;20080;-72
2022/12/01 04:44:56;;;;;;;95.82;45.38;;;6.30;99.90;;;;;;5068550;28;20288;-72
2022/12/01 04:47:22;;;;;;;94.32;43.45;;;6.40;99.90;;;;;;5055540;28;20085;-72
2022/12/01 04:49:48;;;;;;;91.50;43.63;;;6.30;99.90;;;;;;5034236;28;20066;-72
2022/12/01 04:52:14;;;;;;;98.43;43.13;;;6.30;99.90;;;;;;5053290;28;20041;-72
2022/12/01 04:54:39;;;;;;;94.82;41.70;;;6.30;99.90;;;;;;5056361;28;20037;-72
2022/12/01 04:57:05;;;;;;;92.35;44.45;;;6.30;99.90;;;;;;5039269;28;20068;-72
2022/12/01 04:59:31;;;;;;;99.97;44.38;;;6.30;99.90;;;;;;5071427;28;20048;-73
2022/12/01 05:01:56;;;;;;;91.78;42.97;;;6.30;99.90;;;;;;5053577;28;20171;-72
2022/12/01 05:04:22;;;;;;;95.80;44.45;;;6.20;99.90;;;;;;5057819;28;20047;-72
2022/12/01 05:06:48;;;;;;;90.22;42.45;;;6.20;99.90;;;;;;5056789;28;20049;-72
2022/12/01 05:09:15;;;;;;;102.93;46.17;;;6.20;99.90;;;;;;5040759;28;20048;-73
2022/12/01 05:11:41;;;;;;;88.60;41.50;;;6.30;99.90;;;;;;5074912;28;20041;-72
2022/12/01 05:14:07;;;;;;;94.80;43.80;;;6.30;99.90;;;;;;5074899;28;20068;-72
2022/12/01 05:16:33;;;;;;;90.68;43.55;;;6.30;99.90;;;;;;5050573;28;20078;-72
2022/12/01 05:21:47;;;;;;;100.18;44.83;;;6.30;99.90;;;;;;5057765;28;20056;-70
2022/12/01 05:24:14;;;;;;;102.35;47.08;;;6.30;99.90;;;;;;5075624;28;20044;-72
2022/12/01 05:26:41;;;;;;;97.30;43.30;;;6.30;99.90;;;;;;5060167;28;20060;-72
2022/12/01 05:29:07;;;;;;;102.80;45.55;;;6.40;99.90;;;;;;5085386;28;20056;-72
2022/12/01 05:31:33;;;;;;;101.18;44.17;;;6.30;99.90;;;;;;5049298;28;20071;-71
2022/12/01 05:33:59;;;;;;;105.00;44.33;;;6.40;99.90;;;;;;5049265;28;20382;-72
2022/12/01 05:36:25;;;;;;;105.68;43.63;;;6.40;99.90;;;;;;5065945;28;20049;-73
2022/12/01 05:38:50;;;;;;;104.03;45.80;;;6.30;99.90;;;;;;5064622;28;20033;-71
2022/12/01 05:41:16;;;;;;;105.32;47.17;;;6.30;99.90;;;;;;5064832;28;20173;-72
2022/12/01 05:43:42;;;;;;;99.53;45.45;;;6.40;99.90;;;;;;5047983;28;20049;-73
2022/12/01 05:46:08;;;;;;;101.18;45.97;;;6.30;99.90;;;;;;5051289;28;20056;-74
2022/12/01 05:48:33;;;;;;;110.40;49.92;;;6.30;99.90;;;;;;5051879;28;20505;-76
2022/12/01 05:50:59;;;;;;;109.50;48.25;;;6.30;99.90;;;;;;5070157;28;20041;-72
2022/12/01 05:53:25;;;;;;;102.38;43.40;;;6.30;99.90;;;;;;5053137;28;20057;-70
2022/12/01 05:55:52;;;;;;;109.65;47.72;;;6.40;99.90;;;;;;5049549;28;20044;-71
2022/12/01 05:58:18;;;;;;;99.00;43.60;;;6.30;99.90;;;;;;5070009;28;20046;-71
2022/12/01 06:00:43;;;;;;;97.47;44.58;;;6.30;99.90;;;;;;5065962;28;20433;-71
2022/12/01 06:03:09;;;;;;;101.10;45.70;;;6.30;99.90;;;;;;5066459;28;20082;-71
2022/12/01 06:05:35;;;;;;;108.40;46.53;;;6.40;99.90;;;;;;5060729;28;20045;-71
2022/12/01 06:08:00;;;;;;;104.43;45.22;;;6.40;99.90;;;;;;5052185;28;20053;-71
2022/12/01 06:10:26;;;;;;;100.35;43.40;;;6.30;99.90;;;;;;5065641;28;20045;-71
2022/12/01 06:12:52;;;;;;;104.47;44.85;;;6.30;99.90;;;;;;5077602;28;20055;-72
2022/12/01 06:15:18;;;;;;;102.55;44.15;;;6.30;99.90;;;;;;5060552;28;20076;-71
2022/12/01 06:17:43;;;;;;;101.53;45.22;;;6.30;99.90;;;;;;5059851;28;20052;-71
2022/12/01 06:20:10;;;;;;;107.75;45.85;;;6.30;99.90;;;;;;5044525;28;20052;-72
2022/12/01 06:22:35;;;;;;;102.47;45.67;;;6.30;99.90;;;;;;5067443;28;20080;-72
2022/12/01 06:25:02;;;;;;;102.57;44.90;;;6.30;99.90;;;;;;5064926;28;20131;-71
2022/12/01 06:27:27;;;;;;;102.75;47.13;;;6.40;99.90;;;;;;5066627;28;20084;-72
2022/12/01 06:29:53;;;;;;;103.88;43.22;;;6.40;99.90;;;;;;5074555;28;20033;-72
2022/12/01 06:32:19;;;;;;;102.38;43.60;;;6.30;99.90;;;;;;5063187;28;20037;-72
2022/12/01 06:34:44;;;;;;;96.65;43.05;;;6.30;99.90;;;;;;5079794;28;20040;-72
2022/12/01 06:37:11;;;;;;;100.03;45.03;;;6.30;99.90;;;;;;5085971;28;20047;-72
2022/12/01 06:39:37;;;;;;;102.80;42.92;;;6.30;99.90;;;;;;5068002;28;20052;-72
2022/12/01 06:42:02;;;;;;;108.30;45.88;;;6.30;99.90;;;;;;5068762;28;20051;-72
2022/12/01 06:44:28;;;;;;;102.30;43.35;;;6.30;99.90;;;;;;5067554;28;20397;-72
2022/12/01 06:46:56;;;;;;;107.57;47.22;;;6.30;99.90;;;;;;5050537;28;20076;-72
2022/12/01 06:49:21;;;;;;;106.63;45.85;;;6.30;99.90;;;;;;5065396;28;20170;-71
2022/12/01 06:51:48;;;;;;;111.13;46.13;;;6.30;99.90;;;;;;5051376;28;20412;-71
2022/12/01 06:54:16;;;;;;;106.47;45.70;;;6.30;99.90;;;;;;5069265;28;20044;-71
2022/12/01 06:56:43;;;;;;;103.45;43.80;;;6.30;99.90;;;;;;5080206;28;20055;-72
2022/12/01 06:59:08;;;;;;;105.68;45.72;;;6.30;99.90;;;;;;5078799;28;20036;-71
2022/12/01 07:01:34;;;;;;;99.82;42.38;;;6.30;99.90;;;;;;5066323;28;20048;-72
2022/12/01 07:04:00;;;;;;;101.30;44.05;;;6.40;99.90;;;;;;5068068;28;20045;-72
2022/12/01 07:06:25;;;;;;;99.50;44.17;;;6.30;99.90;;;;;;5066450;28;20048;-72
2022/12/01 07:08:52;;;;;;;95.25;42.90;;;6.30;99.90;;;;;;5067867;28;20413;-72
2022/12/01 07:11:17;;;;;;;108.47;45.25;;;6.30;99.90;;;;;;5067092;28;20063;-72
2022/12/01 07:13:44;;;;;;;110.95;44.63;;;6.20;99.90;;;;;;5051893;28;20037;-72
2022/12/01 07:16:10;;;;;;;104.85;44.17;;;6.20;99.90;;;;;;5064359;28;20060;-72
2022/12/01 07:18:37;;;;;;;103.47;45.50;;;6.20;99.90;;;;;;5055366;28;20053;-72
2022/12/01 07:21:09;;;;;;;104.20;45.55;;;6.30;99.90;;;;;;5053635;28;20049;-72
2022/12/01 07:23:35;;;;;;;102.65;44.15;;;6.30;99.90;;;;;;5055523;28;20053;-72
2022/12/01 07:26:16;;;;;;;109.57;46.30;;;6.30;99.90;;;;;;5058462;28;20419;-72
2022/12/01 07:28:42;;;;;;;104.57;44.28;;;6.30;99.90;;;;;;5036914;28;20107;-72
2022/12/01 07:31:10;;;;;;;103.13;44.38;;;6.40;99.90;;;;;;5086475;28;20040;-72
2022/12/01 07:33:36;;;;;;;102.43;44.20;;;6.30;99.90;;;;;;5053122;28;20048;-71
2022/12/01 07:36:04;;;;;;;102.20;46.78;;;6.30;99.90;;;;;;5052333;28;20045;-72
2022/12/01 07:38:31;;;;;;;96.22;41.90;;;6.40;99.90;;;;;;5074016;28;20106;-71
2022/12/01 07:41:18;;;;;;;100.18;43.15;;;6.40;99.90;;;;;;5057306;28;20051;-72
2022/12/01 07:43:44;;;;;;;92.95;41.15;;;6.30;99.90;;;;;;5059874;28;20059;-72
2022/12/01 07:46:13;;;;;;;98.20;43.30;;;6.40;99.90;;;;;;5056045;28;20045;-72
2022/12/01 07:48:40;;;;;;;99.05;43.50;;;6.40;99.90;;;;;;5076663;28;20052;-72
2022/12/01 07:51:07;;;;;;;97.50;43.08;;;6.40;99.90;;;;;;5054324;28;20041;-72
2022/12/01 07:53:33;;;;;;;99.47;42.38;;;6.40;99.90;;;;;;5061308;28;20056;-72
2022/12/01 07:55:59;;;;;;;95.97;42.95;;;6.50;99.90;;;;;;5056054;28;20049;-72
2022/12/01 07:58:26;;;;;;;98.90;42.45;;;6.40;99.90;;;;;;5061295;28;20124;-72
2022/12/01 08:00:52;;;;;;;99.25;42.63;;;6.40;99.90;;;;;;5055912;28;20052;-72
2022/12/01 08:03:19;;;;;;;97.57;42.38;;;6.40;99.90;;;;;;5061941;28;20040;-72
2022/12/01 08:05:44;;;;;;;96.07;41.17;;;6.40;99.90;;;;;;5074939;28;20033;-73
2022/12/01 08:08:10;;;;;;;92.28;40.60;;;6.40;99.90;;;;;;5044710;28;20055;-72
2022/12/01 08:10:36;;;;;;;98.65;45.10;;;6.40;99.90;;;;;;5040662;28;20056;-72
2022/12/01 08:13:02;;;;;;;102.65;44.50;;;6.40;99.90;;;;;;5028762;28;20056;-72
2022/12/01 08:15:28;;;;;;;95.22;41.85;;;6.40;99.90;;;;;;5052936;28;20106;-72
2022/12/01 08:17:53;;;;;;;91.78;41.80;;;6.50;99.90;;;;;;5079758;28;20397;-72
2022/12/01 08:20:20;;;;;;;90.13;40.60;;;6.40;99.90;;;;;;5058407;28;20044;-72
2022/12/01 08:22:46;;;;;;;102.22;44.92;;;6.50;99.90;;;;;;5062378;28;20174;-72
2022/12/01 08:25:12;;;;;;;89.88;39.50;;;6.40;99.90;;;;;;5077280;28;20037;-72
2022/12/01 08:27:37;;;;;;;91.78;41.40;;;6.50;99.90;;;;;;5081897;28;20044;-72
2022/12/01 08:30:04;;;;;;;89.85;41.03;;;6.60;99.90;;;;;;5035211;28;20528;-72
2022/12/01 08:32:29;;;;;;;94.20;41.10;;;6.50;99.90;;;;;;5059776;28;20060;-72
2022/12/01 08:34:55;;;;;;;94.82;42.15;;;6.60;99.90;;;;;;5076056;28;20037;-72
2022/12/01 08:37:21;;;;;;;89.70;40.72;;;6.60;99.90;;;;;;5054359;28;20049;-72
2022/12/01 08:39:46;;;;;;;97.72;40.42;;;6.60;99.90;;;;;;5063823;28;20037;-72
2022/12/01 08:42:12;;;;;;;98.75;42.10;;;6.50;99.90;;;;;;5066547;28;20048;-71
2022/12/01 08:44:38;;;;;;;96.75;42.25;;;6.60;99.90;;;;;;5064386;28;20055;-72
2022/12/01 08:47:03;;;;;;;94.20;40.83;;;6.60;99.90;;;;;;5070256;28;20193;-72
2022/12/01 08:49:29;;;;;;;95.15;41.30;;;6.60;99.90;;;;;;5057348;28;20131;-72
2022/12/01 08:51:55;;;;;;;92.72;41.40;;;6.70;99.90;;;;;;5050321;28;20485;-72
2022/12/01 08:54:21;;;;;;;94.40;41.28;;;6.70;99.90;;;;;;5050433;28;20086;-72
2022/12/01 08:56:47;;;;;;;87.93;39.80;;;6.80;99.90;;;;;;5052529;28;20116;-72
2022/12/01 08:59:13;;;;;;;95.10;39.35;;;6.80;99.90;;;;;;5049641;28;20066;-72
2022/12/01 09:01:51;;;;;;;94.32;41.75;;;6.70;99.90;;;;;;5053574;28;20088;-72
2022/12/01 09:04:21;;;;;;;89.30;41.00;;;6.70;99.90;;;;;;5050860;28;20312;-72
2022/12/01 09:06:48;;;;;;;85.25;37.78;;;6.70;99.90;;;;;;5071487;28;20075;-72
2022/12/01 09:09:17;;;;;;;88.75;39.42;;;6.70;99.90;;;;;;5050586;28;20048;-72
2022/12/01 09:11:44;;;;;;;86.60;39.90;;;6.70;99.90;;;;;;5087044;28;20048;-72
2022/12/01 09:14:15;;;;;;;91.65;40.10;;;6.80;99.90;;;;;;5048460;28;20511;-72
2022/12/01 09:16:43;;;;;;;90.43;40.17;;;6.80;99.90;;;;;;5073789;28;20044;-72
2022/12/01 09:19:09;;;;;;;91.95;39.53;;;6.80;99.90;;;;;;5050280;28;20055;-72
2022/12/01 09:21:38;;;;;;;97.50;41.60;;;6.80;99.90;;;;;;5071445;28;20068;-72
2022/12/01 09:24:06;;;;;;;88.45;37.95;;;6.80;99.90;;;;;;5050452;28;20049;-72
2022/12/01 09:26:32;;;;;;;83.55;38.17;;;6.80;99.90;;;;;;5053613;28;20055;-72
2022/12/01 09:29:01;;;;;;;91.38;41.75;;;6.80;99.90;;;;;;5067682;28;20060;-72
2022/12/01 09:31:26;;;;;;;83.53;38.67;;;6.90;99.90;;;;;;5070040;28;20048;-72
2022/12/01 09:34:07;;;;;;;89.13;39.90;;;6.90;99.90;;;;;;5063474;28;20055;-72
2022/12/01 09:36:35;;;;;;;92.45;40.55;;;6.90;99.90;;;;;;5052466;28;20071;-72
2022/12/01 09:39:01;;;;;;;85.05;38.90;;;6.90;99.90;;;;;;5051851;28;20049;-72
2022/12/01 09:41:35;;;;;;;81.28;38.55;;;6.90;99.90;;;;;;5035120;28;20176;-72
2022/12/01 09:44:14;;;;;;;81.88;37.63;;;7.00;99.90;;;;;;5048444;28;20042;-72
2022/12/01 09:46:51;;;;;;;91.18;39.63;;;7.00;99.90;;;;;;5049726;28;20089;-72
2022/12/01 09:49:35;;;;;;;91.78;39.60;;;7.00;99.90;;;;;;5050026;28;20056;-72
2022/12/01 09:52:01;;;;;;;94.38;40.70;;;7.00;99.90;;;;;;5050228;28;20052;-72
2022/12/01 09:54:28;;;;;;;80.47;38.67;;;7.00;99.90;;;;;;5052114;28;20142;-72
2022/12/01 09:56:54;;;;;;;85.20;38.55;;;7.10;99.90;;;;;;5049251;28;20330;-72
2022/12/01 09:59:29;;;;;;;85.30;37.85;;;7.10;99.90;;;;;;5035331;28;20736;-72
2022/12/01 10:02:00;;;;;;;83.75;37.33;;;7.10;99.90;;;;;;5051106;28;20080;-72
2022/12/01 10:04:50;;;;;;;79.00;36.83;;;7.10;99.90;;;;;;5038317;28;20244;-72
2022/12/01 10:07:26;;;;;;;81.18;36.42;;;7.10;99.90;;;;;;5058561;28;20080;-72
2022/12/01 10:09:59;;;;;;;79.50;36.83;;;7.00;99.90;;;;;;5046625;28;20048;-72
2022/12/01 10:12:29;;;;;;;73.35;34.83;;;7.10;99.90;;;;;;5081115;28;20052;-72
2022/12/01 10:15:11;;;;;;;76.70;35.70;;;7.10;99.90;;;;;;5055444;28;20066;-71
2022/12/01 10:17:54;;;;;;;81.15;37.17;;;7.10;99.90;;;;;;5040652;28;20501;-72
2022/12/01 10:20:30;;;;;;;70.85;34.05;;;7.20;99.90;;;;;;5042881;28;20036;-72
2022/12/01 10:23:20;;;;;;;81.93;37.45;;;7.10;99.90;;;;;;5055543;28;20076;-72
2022/12/01 10:25:56;;;;;;;78.68;37.38;;;7.20;99.90;;;;;;5041232;28;20056;-72
2022/12/01 10:28:50;;;;;;;78.95;35.65;;;7.20;99.90;;;;;;5059283;28;20040;-72
2022/12/01 10:31:40;;;;;;;79.82;36.47;;;7.20;99.90;;;;;;5046925;28;20052;-72
2022/12/01 10:34:26;;;;;;;;;;;7.10;99.90;;;;;;5062536;28;20057;-72
2022/12/01 10:36:52;;;;;;;78.85;35.58;;;7.10;99.90;;;;;;5051313;28;19920;-72
2022/12/01 10:39:28;;;;;;;78.53;37.15;;;7.10;99.90;;;;;;5039373;28;20103;-72
2022/12/01 10:42:10;;;;;;;84.35;37.58;;;7.10;99.90;;;;;;5063590;28;20048;-72
2022/12/01 10:44:36;;;;;;;79.90;36.60;;;7.10;99.90;;;;;;5064240;28;20452;-72
2022/12/01 10:47:02;;;;;;;81.75;38.67;;;7.20;99.90;;;;;;5079606;28;20056;-72
2022/12/01 10:49:39;;;;;;;77.03;37.05;;;7.20;99.90;;;;;;5053905;28;20044;-72
2022/12/01 10:52:06;;;;;;;80.93;36.65;;;7.20;99.90;;;;;;5061214;28;20044;-72
2022/12/01 10:54:38;;;;;;;76.72;35.58;;;7.10;99.90;;;;;;5082784;28;20054;-72
2022/12/01 10:57:06;;;;;;;73.57;34.67;;;7.20;99.90;;;;;;5058726;28;20044;-72
2022/12/01 10:59:46;;;;;;;70.78;35.30;;;7.20;99.90;;;;;;5048939;28;20048;-72
2022/12/01 11:02:31;;;;;;;75.50;34.50;;;7.20;99.90;;;;;;5060887;28;20067;-72
2022/12/01 11:04:58;;;;;;;72.47;34.33;;;7.20;99.90;;;;;;5047688;28;20044;-72
2022/12/01 11:07:33;;;;;;;74.18;34.83;;;7.20;99.90;;;;;;5067036;28;20059;-72
2022/12/01 11:10:31;;;;;;;77.55;35.50;;;7.20;99.90;;;;;;5063558;28;20493;-72
2022/12/01 11:13:06;;;;;;;76.20;35.78;;;7.20;99.90;;;;;;5064658;28;20040;-72
2022/12/01 11:15:37;;;;;;;70.10;33.70;;;7.20;99.90;;;;;;5044300;28;20071;-72
2022/12/01 11:18:17;;;;;;;76.60;36.95;;;7.20;99.90;;;;;;5063914;28;20075;-72
2022/12/01 11:20:43;;;;;;;67.97;36.08;;;7.30;99.90;;;;;;5066117;28;20049;-72
2022/12/01 11:23:08;;;;;;;71.85;35.38;;;7.40;99.90;;;;;;5082361;28;20136;-72
2022/12/01 11:25:35;;;;;;;71.57;36.50;;;7.40;99.90;;;;;;5084946;28;20112;-72
2022/12/01 11:28:03;;;;;;;72.53;35.80;;;7.40;99.90;;;;;;5052494;28;20048;-72
2022/12/01 11:30:31;;;;;;;73.22;35.53;;;7.40;99.90;;;;;;5049453;28;20045;-72
2022/12/01 11:32:59;;;;;;;73.57;35.53;;;7.30;99.90;;;;;;5055669;28;20528;-72
2022/12/01 11:35:34;;;;;;;72.20;34.33;;;7.40;99.90;;;;;;5040314;28;20053;-72
2022/12/01 11:38:02;;;;;;;63.33;33.05;;;7.40;99.90;;;;;;5061920;28;20044;-72
2022/12/01 11:40:36;;;;;;;68.60;33.45;;;7.40;99.90;;;;;;5018892;28;20083;-72
2022/12/01 11:43:04;;;;;;;60.75;31.67;;;7.40;99.90;;;;;;5047264;28;20049;-72
2022/12/01 11:45:38;;;;;;;62.67;31.45;;;7.40;99.90;;;;;;5047878;28;20045;-72
2022/12/01 11:48:19;;;;;;;65.35;31.98;;;7.50;99.90;;;;;;5047891;28;20063;-71
2022/12/01 11:51:08;;;;;;;59.95;31.20;;;7.50;99.90;;;;;;5048476;28;20041;-72
2022/12/01 11:53:35;;;;;;;62.22;31.73;;;7.40;99.90;;;;;;5049335;28;20045;-72
2022/12/01 11:56:19;;;;;;;59.75;31.63;;;7.40;99.90;;;;;;5047723;28;20057;-71
2022/12/01 11:58:47;;;;;;;60.55;31.77;;;7.40;99.90;;;;;;5037331;28;20104;-72
2022/12/01 12:01:37;;;;;;;61.70;31.85;;;7.40;99.90;;;;;;5048786;28;20104;-72
2022/12/01 12:04:14;;;;;;;58.40;31.33;;;7.40;99.90;;;;;;5048267;28;20060;-72
2022/12/01 12:06:54;;;;;;;58.92;32.00;;;7.40;99.90;;;;;;5047373;28;20056;-72
2022/12/01 12:09:45;;;;;;;56.92;31.00;;;7.40;99.90;;;;;;5047194;28;20061;-72
2022/12/01 12:12:47;;;;;;;60.30;31.02;;;7.40;99.90;;;;;;5047165;28;20068;-72
2022/12/01 12:15:31;;;;;;;58.25;29.35;;;7.40;99.90;;;;;;5033031;28;20045;-72
2022/12/01 12:18:16;;;;;;;55.45;29.63;;;7.40;99.90;;;;;;5048660;28;20044;-72
2022/12/01 12:20:56;;;;;;;54.22;28.65;;;7.40;99.90;;;;;;5047780;28;20619;-72
2022/12/01 12:23:59;;;;;;;58.38;30.25;;;7.40;99.90;;;;;;5047387;28;20072;-71
2022/12/01 12:26:28;;;;;;;54.50;30.23;;;7.40;99.90;;;;;;5047476;28;20048;-71
2022/12/01 12:29:20;;;;;;;54.47;30.90;;;7.40;99.90;;;;;;5046901;28;22508;-72
2022/12/01 12:31:54;;;;;;;55.85;30.42;;;7.40;99.90;;;;;;5044680;28;20049;-72
2022/12/01 12:34:39;;;;;;;53.05;29.83;;;7.30;99.90;;;;;;5059267;28;20071;-72
2022/12/01 12:37:29;;;;;;;58.03;31.55;;;7.30;99.90;;;;;;5038763;28;20068;-71
2022/12/01 12:40:01;;;;;;;55.25;30.00;;;7.40;99.90;;;;;;5064788;28;20041;-72
2022/12/01 12:42:47;;;;;;;58.97;30.27;;;7.40;99.90;;;;;;5046597;28;20063;-72
2022/12/01 12:45:31;;;;;;;51.60;29.05;;;7.40;99.90;;;;;;5046837;28;20043;-72
2022/12/01 12:48:17;;;;;;;54.85;29.98;;;7.40;99.90;;;;;;5046904;28;20536;-72
2022/12/01 12:51:07;;;;;;;57.70;30.70;;;7.40;99.90;;;;;;5046595;28;20044;-72
2022/12/01 12:53:42;;;;;;;55.83;29.42;;;7.40;99.90;;;;;;5035971;28;20057;-72
2022/12/01 12:56:12;;;;;;;56.75;31.73;;;7.40;99.90;;;;;;5047096;28;20056;-72
2022/12/01 12:59:06;;;;;;;50.95;28.75;;;7.40;99.90;;;;;;5047075;28;20049;-72